sensor_id;sensor_type;location;lat;lon;timestamp;P1;durP1;ratioP1;P2;durP2;ratioP2
21360;SDS011;10839;43.206;23.550;2022-11-15T00:00:09;23.30;;;10.40;;
21360;SDS011;10839;43.206;23.550;2022-11-15T00:02:54;19.50;;;9.75;;
21360;SDS011;10839;43.206;23.550;2022-11-15T00:05:39;22.65;;;9.98;;
21360;SDS011;10839;43.206;23.550;2022-11-15T00:08:28;21.40;;;10.73;;
21360;SDS011;10839;43.206;23.550;2022-11-15T00:11:15;20.27;;;9.80;;
21360;SDS011;10839;43.206;23.550;2022-11-15T00:14:00;22.63;;;9.90;;
21360;SDS011;10839;43.206;23.550;2022-11-15T00:16:46;19.08;;;9.43;;
21360;SDS011;10839;43.206;23.550;2022-11-15T00:19:31;20.23;;;9.57;;
21360;SDS011;10839;43.206;23.550;2022-11-15T00:22:17;20.25;;;10.30;;
21360;SDS011;10839;43.206;23.550;2022-11-15T00:25:02;19.55;;;9.65;;
21360;SDS011;10839;43.206;23.550;2022-11-15T00:27:48;18.95;;;9.52;;
21360;SDS011;10839;43.206;23.550;2022-11-15T00:30:35;22.05;;;9.75;;
21360;SDS011;10839;43.206;23.550;2022-11-15T00:33:20;21.25;;;10.32;;
21360;SDS011;10839;43.206;23.550;2022-11-15T00:36:06;22.02;;;10.35;;
21360;SDS011;10839;43.206;23.550;2022-11-15T00:38:53;21.52;;;9.65;;
21360;SDS011;10839;43.206;23.550;2022-11-15T00:41:39;18.50;;;9.30;;
21360;SDS011;10839;43.206;23.550;2022-11-15T00:44:23;18.27;;;8.45;;
21360;SDS011;10839;43.206;23.550;2022-11-15T00:47:08;18.13;;;8.38;;
21360;SDS011;10839;43.206;23.550;2022-11-15T00:49:54;17.05;;;8.57;;
21360;SDS011;10839;43.206;23.550;2022-11-15T00:52:38;16.25;;;8.38;;
21360;SDS011;10839;43.206;23.550;2022-11-15T00:55:23;24.20;;;10.98;;
21360;SDS011;10839;43.206;23.550;2022-11-15T00:58:08;24.30;;;11.10;;
21360;SDS011;10839;43.206;23.550;2022-11-15T01:00:53;21.92;;;10.40;;
21360;SDS011;10839;43.206;23.550;2022-11-15T01:03:38;22.73;;;10.85;;
21360;SDS011;10839;43.206;23.550;2022-11-15T01:06:25;21.90;;;10.98;;
21360;SDS011;10839;43.206;23.550;2022-11-15T01:09:10;23.02;;;11.02;;
21360;SDS011;10839;43.206;23.550;2022-11-15T01:11:54;22.70;;;11.05;;
21360;SDS011;10839;43.206;23.550;2022-11-15T01:14:39;23.55;;;11.27;;
21360;SDS011;10839;43.206;23.550;2022-11-15T01:17:24;23.30;;;10.30;;
21360;SDS011;10839;43.206;23.550;2022-11-15T01:20:09;23.95;;;10.32;;
21360;SDS011;10839;43.206;23.550;2022-11-15T01:22:54;21.27;;;9.93;;
21360;SDS011;10839;43.206;23.550;2022-11-15T01:25:49;22.70;;;10.55;;
21360;SDS011;10839;43.206;23.550;2022-11-15T01:28:34;23.27;;;10.82;;
21360;SDS011;10839;43.206;23.550;2022-11-15T01:31:21;23.05;;;9.95;;
21360;SDS011;10839;43.206;23.550;2022-11-15T01:34:05;21.67;;;10.38;;
21360;SDS011;10839;43.206;23.550;2022-11-15T01:36:50;23.88;;;10.70;;
21360;SDS011;10839;43.206;23.550;2022-11-15T01:39:35;21.98;;;10.20;;
21360;SDS011;10839;43.206;23.550;2022-11-15T01:42:20;23.73;;;10.55;;
21360;SDS011;10839;43.206;23.550;2022-11-15T01:45:05;21.75;;;9.82;;
21360;SDS011;10839;43.206;23.550;2022-11-15T01:47:57;21.90;;;9.40;;
21360;SDS011;10839;43.206;23.550;2022-11-15T01:50:42;22.17;;;10.25;;
21360;SDS011;10839;43.206;23.550;2022-11-15T01:53:28;21.58;;;10.65;;
21360;SDS011;10839;43.206;23.550;2022-11-15T01:56:18;18.90;;;9.65;;
21360;SDS011;10839;43.206;23.550;2022-11-15T01:59:07;21.90;;;10.43;;
21360;SDS011;10839;43.206;23.550;2022-11-15T02:01:54;23.55;;;10.32;;
21360;SDS011;10839;43.206;23.550;2022-11-15T02:04:43;20.73;;;10.40;;
21360;SDS011;10839;43.206;23.550;2022-11-15T02:07:33;23.33;;;10.52;;
21360;SDS011;10839;43.206;23.550;2022-11-15T02:10:20;21.73;;;10.45;;
21360;SDS011;10839;43.206;23.550;2022-11-15T02:13:07;17.83;;;9.75;;
21360;SDS011;10839;43.206;23.550;2022-11-15T02:15:57;20.15;;;9.82;;
21360;SDS011;10839;43.206;23.550;2022-11-15T02:18:52;20.77;;;9.23;;
21360;SDS011;10839;43.206;23.550;2022-11-15T02:31:22;20.98;;;9.20;;
21360;SDS011;10839;43.206;23.550;2022-11-15T02:43:12;18.90;;;8.80;;
21360;SDS011;10839;43.206;23.550;2022-11-15T02:49:31;17.13;;;9.02;;
21360;SDS011;10839;43.206;23.550;2022-11-15T02:52:18;17.05;;;9.02;;
21360;SDS011;10839;43.206;23.550;2022-11-15T02:55:25;18.73;;;9.02;;
21360;SDS011;10839;43.206;23.550;2022-11-15T03:07:14;22.15;;;8.98;;
21360;SDS011;10839;43.206;23.550;2022-11-15T03:10:11;22.60;;;9.55;;
21360;SDS011;10839;43.206;23.550;2022-11-15T03:13:27;18.90;;;8.57;;
21360;SDS011;10839;43.206;23.550;2022-11-15T03:19:23;18.13;;;8.45;;
21360;SDS011;10839;43.206;23.550;2022-11-15T03:22:36;19.25;;;8.88;;
21360;SDS011;10839;43.206;23.550;2022-11-15T03:25:25;22.73;;;11.23;;
21360;SDS011;10839;43.206;23.550;2022-11-15T03:28:14;24.80;;;11.00;;
21360;SDS011;10839;43.206;23.550;2022-11-15T03:31:15;17.73;;;8.00;;
21360;SDS011;10839;43.206;23.550;2022-11-15T03:37:36;14.30;;;7.47;;
21360;SDS011;10839;43.206;23.550;2022-11-15T03:40:49;14.32;;;7.22;;
21360;SDS011;10839;43.206;23.550;2022-11-15T03:47:12;14.43;;;6.75;;
21360;SDS011;10839;43.206;23.550;2022-11-15T03:50:16;13.65;;;6.53;;
21360;SDS011;10839;43.206;23.550;2022-11-15T03:53:04;16.20;;;7.82;;
21360;SDS011;10839;43.206;23.550;2022-11-15T03:55:49;18.88;;;8.27;;
21360;SDS011;10839;43.206;23.550;2022-11-15T03:58:35;14.02;;;7.55;;
21360;SDS011;10839;43.206;23.550;2022-11-15T04:01:21;15.38;;;7.93;;
21360;SDS011;10839;43.206;23.550;2022-11-15T04:04:09;15.50;;;7.88;;
21360;SDS011;10839;43.206;23.550;2022-11-15T04:06:54;16.50;;;7.97;;
21360;SDS011;10839;43.206;23.550;2022-11-15T04:09:39;32.38;;;16.58;;
21360;SDS011;10839;43.206;23.550;2022-11-15T04:12:45;15.40;;;7.93;;
21360;SDS011;10839;43.206;23.550;2022-11-15T04:15:31;17.65;;;8.05;;
21360;SDS011;10839;43.206;23.550;2022-11-15T04:18:16;15.80;;;8.27;;
21360;SDS011;10839;43.206;23.550;2022-11-15T04:21:03;16.67;;;7.85;;
21360;SDS011;10839;43.206;23.550;2022-11-15T04:24:07;12.03;;;5.97;;
21360;SDS011;10839;43.206;23.550;2022-11-15T04:26:58;15.90;;;6.97;;
21360;SDS011;10839;43.206;23.550;2022-11-15T04:29:43;18.38;;;6.78;;
21360;SDS011;10839;43.206;23.550;2022-11-15T04:32:30;15.27;;;7.53;;
21360;SDS011;10839;43.206;23.550;2022-11-15T04:35:15;15.07;;;7.13;;
21360;SDS011;10839;43.206;23.550;2022-11-15T04:38:01;16.95;;;8.05;;
21360;SDS011;10839;43.206;23.550;2022-11-15T04:40:57;14.88;;;7.20;;
21360;SDS011;10839;43.206;23.550;2022-11-15T04:43:41;15.05;;;8.02;;
21360;SDS011;10839;43.206;23.550;2022-11-15T04:46:27;15.00;;;6.68;;
21360;SDS011;10839;43.206;23.550;2022-11-15T04:49:13;15.00;;;7.22;;
21360;SDS011;10839;43.206;23.550;2022-11-15T04:52:03;15.93;;;6.80;;
21360;SDS011;10839;43.206;23.550;2022-11-15T04:57:59;15.48;;;7.18;;
21360;SDS011;10839;43.206;23.550;2022-11-15T05:00:46;18.23;;;7.95;;
21360;SDS011;10839;43.206;23.550;2022-11-15T05:03:31;17.65;;;8.25;;
21360;SDS011;10839;43.206;23.550;2022-11-15T05:06:48;15.77;;;7.43;;
21360;SDS011;10839;43.206;23.550;2022-11-15T05:09:35;16.17;;;7.53;;
21360;SDS011;10839;43.206;23.550;2022-11-15T05:16:03;16.20;;;7.47;;
21360;SDS011;10839;43.206;23.550;2022-11-15T05:18:51;12.73;;;6.65;;
21360;SDS011;10839;43.206;23.550;2022-11-15T05:21:43;13.18;;;6.88;;
21360;SDS011;10839;43.206;23.550;2022-11-15T05:27:03;15.45;;;6.72;;
21360;SDS011;10839;43.206;23.550;2022-11-15T05:29:48;13.88;;;6.78;;
21360;SDS011;10839;43.206;23.550;2022-11-15T05:32:33;14.55;;;7.43;;
21360;SDS011;10839;43.206;23.550;2022-11-15T05:38:30;17.90;;;8.38;;
21360;SDS011;10839;43.206;23.550;2022-11-15T05:41:17;13.90;;;7.43;;
21360;SDS011;10839;43.206;23.550;2022-11-15T05:44:05;13.60;;;7.03;;
21360;SDS011;10839;43.206;23.550;2022-11-15T05:49:49;13.52;;;6.95;;
21360;SDS011;10839;43.206;23.550;2022-11-15T05:52:46;13.68;;;7.15;;
21360;SDS011;10839;43.206;23.550;2022-11-15T05:58:18;13.15;;;6.18;;
21360;SDS011;10839;43.206;23.550;2022-11-15T06:01:05;13.73;;;7.65;;
21360;SDS011;10839;43.206;23.550;2022-11-15T06:03:50;14.45;;;7.00;;
21360;SDS011;10839;43.206;23.550;2022-11-15T06:06:44;16.15;;;7.80;;
21360;SDS011;10839;43.206;23.550;2022-11-15T06:09:29;16.05;;;7.95;;
21360;SDS011;10839;43.206;23.550;2022-11-15T06:14:56;14.68;;;7.72;;
21360;SDS011;10839;43.206;23.550;2022-11-15T06:17:39;18.75;;;8.00;;
21360;SDS011;10839;43.206;23.550;2022-11-15T06:25:48;13.73;;;6.50;;
21360;SDS011;10839;43.206;23.550;2022-11-15T06:28:32;14.68;;;7.03;;
21360;SDS011;10839;43.206;23.550;2022-11-15T06:31:17;14.35;;;7.50;;
21360;SDS011;10839;43.206;23.550;2022-11-15T06:34:01;12.00;;;6.47;;
21360;SDS011;10839;43.206;23.550;2022-11-15T06:36:46;15.23;;;6.68;;
21360;SDS011;10839;43.206;23.550;2022-11-15T06:39:31;14.80;;;7.03;;
21360;SDS011;10839;43.206;23.550;2022-11-15T06:48:06;11.70;;;6.60;;
21360;SDS011;10839;43.206;23.550;2022-11-15T06:50:55;13.25;;;6.97;;
21360;SDS011;10839;43.206;23.550;2022-11-15T06:53:42;14.57;;;7.03;;
21360;SDS011;10839;43.206;23.550;2022-11-15T06:56:28;15.00;;;7.30;;
21360;SDS011;10839;43.206;23.550;2022-11-15T06:59:14;12.95;;;7.22;;
21360;SDS011;10839;43.206;23.550;2022-11-15T07:01:59;15.02;;;8.00;;
21360;SDS011;10839;43.206;23.550;2022-11-15T07:58:15;15.25;;;7.40;;
21360;SDS011;10839;43.206;23.550;2022-11-15T08:30:42;17.13;;;8.53;;
21360;SDS011;10839;43.206;23.550;2022-11-15T08:45:46;14.63;;;7.82;;
21360;SDS011;10839;43.206;23.550;2022-11-15T08:51:13;15.57;;;8.48;;
21360;SDS011;10839;43.206;23.550;2022-11-15T09:24:14;19.25;;;8.90;;
21360;SDS011;10839;43.206;23.550;2022-11-15T10:08:03;21.20;;;10.25;;
21360;SDS011;10839;43.206;23.550;2022-11-15T10:19:42;27.20;;;13.88;;
21360;SDS011;10839;43.206;23.550;2022-11-15T10:33:47;22.08;;;11.98;;
21360;SDS011;10839;43.206;23.550;2022-11-15T10:36:16;19.83;;;11.02;;
21360;SDS011;10839;43.206;23.550;2022-11-15T10:41:15;22.20;;;13.20;;
21360;SDS011;10839;43.206;23.550;2022-11-15T10:44:31;17.65;;;10.20;;
21360;SDS011;10839;43.206;23.550;2022-11-15T10:46:35;19.00;;;11.15;;
21360;SDS011;10839;43.206;23.550;2022-11-15T10:49:19;21.08;;;11.48;;
21360;SDS011;10839;43.206;23.550;2022-11-15T10:54:46;30.00;;;13.57;;
21360;SDS011;10839;43.206;23.550;2022-11-15T10:57:27;24.45;;;13.23;;
21360;SDS011;10839;43.206;23.550;2022-11-15T11:00:07;31.00;;;12.02;;
21360;SDS011;10839;43.206;23.550;2022-11-15T11:02:56;19.60;;;10.00;;
21360;SDS011;10839;43.206;23.550;2022-11-15T11:05:36;21.70;;;11.73;;
21360;SDS011;10839;43.206;23.550;2022-11-15T11:10:37;44.92;;;23.90;;
21360;SDS011;10839;43.206;23.550;2022-11-15T11:13:23;30.33;;;15.55;;
21360;SDS011;10839;43.206;23.550;2022-11-15T11:19:02;25.55;;;13.70;;
21360;SDS011;10839;43.206;23.550;2022-11-15T11:21:41;23.80;;;12.63;;
21360;SDS011;10839;43.206;23.550;2022-11-15T11:30:10;26.33;;;12.00;;
21360;SDS011;10839;43.206;23.550;2022-11-15T11:32:49;29.08;;;12.98;;
21360;SDS011;10839;43.206;23.550;2022-11-15T11:35:27;37.78;;;15.18;;
21360;SDS011;10839;43.206;23.550;2022-11-15T11:44:28;28.42;;;14.80;;
21360;SDS011;10839;43.206;23.550;2022-11-15T11:57:32;36.30;;;16.15;;
21360;SDS011;10839;43.206;23.550;2022-11-15T12:00:25;28.38;;;14.27;;
21360;SDS011;10839;43.206;23.550;2022-11-15T12:05:44;17.38;;;10.80;;
21360;SDS011;10839;43.206;23.550;2022-11-15T12:08:18;24.33;;;12.90;;
21360;SDS011;10839;43.206;23.550;2022-11-15T12:10:50;22.30;;;12.97;;
21360;SDS011;10839;43.206;23.550;2022-11-15T12:13:25;27.38;;;12.05;;
21360;SDS011;10839;43.206;23.550;2022-11-15T12:16:03;22.52;;;11.90;;
21360;SDS011;10839;43.206;23.550;2022-11-15T12:18:46;27.75;;;14.68;;
21360;SDS011;10839;43.206;23.550;2022-11-15T12:21:24;30.02;;;15.00;;
21360;SDS011;10839;43.206;23.550;2022-11-15T12:24:03;30.48;;;13.90;;
21360;SDS011;10839;43.206;23.550;2022-11-15T12:26:55;28.98;;;14.95;;
21360;SDS011;10839;43.206;23.550;2022-11-15T12:31:57;27.38;;;14.98;;
21360;SDS011;10839;43.206;23.550;2022-11-15T12:34:29;23.83;;;12.60;;
21360;SDS011;10839;43.206;23.550;2022-11-15T12:37:32;25.35;;;12.90;;
21360;SDS011;10839;43.206;23.550;2022-11-15T12:42:42;31.38;;;15.20;;
21360;SDS011;10839;43.206;23.550;2022-11-15T12:45:30;27.25;;;14.85;;
21360;SDS011;10839;43.206;23.550;2022-11-15T12:48:46;32.83;;;16.98;;
21360;SDS011;10839;43.206;23.550;2022-11-15T12:51:01;37.00;;;17.05;;
21360;SDS011;10839;43.206;23.550;2022-11-15T12:53:29;31.45;;;15.63;;
21360;SDS011;10839;43.206;23.550;2022-11-15T12:58:48;67.13;;;30.90;;
21360;SDS011;10839;43.206;23.550;2022-11-15T13:06:45;48.65;;;25.67;;
21360;SDS011;10839;43.206;23.550;2022-11-15T13:12:03;38.83;;;20.13;;
21360;SDS011;10839;43.206;23.550;2022-11-15T13:17:03;35.70;;;18.92;;
21360;SDS011;10839;43.206;23.550;2022-11-15T13:19:38;30.85;;;17.30;;
21360;SDS011;10839;43.206;23.550;2022-11-15T13:22:06;31.30;;;17.08;;
21360;SDS011;10839;43.206;23.550;2022-11-15T13:25:04;32.58;;;17.25;;
21360;SDS011;10839;43.206;23.550;2022-11-15T13:27:57;33.53;;;18.20;;
21360;SDS011;10839;43.206;23.550;2022-11-15T13:30:27;37.15;;;20.27;;
21360;SDS011;10839;43.206;23.550;2022-11-15T13:33:14;50.67;;;24.75;;
21360;SDS011;10839;43.206;23.550;2022-11-15T13:35:45;47.40;;;23.42;;
21360;SDS011;10839;43.206;23.550;2022-11-15T13:38:33;41.53;;;21.40;;
21360;SDS011;10839;43.206;23.550;2022-11-15T13:43:47;47.10;;;23.23;;
21360;SDS011;10839;43.206;23.550;2022-11-15T13:48:50;43.05;;;22.67;;
21360;SDS011;10839;43.206;23.550;2022-11-15T13:54:16;39.50;;;20.17;;
21360;SDS011;10839;43.206;23.550;2022-11-15T13:56:52;40.42;;;20.02;;
21360;SDS011;10839;43.206;23.550;2022-11-15T14:00:00;44.55;;;21.85;;
21360;SDS011;10839;43.206;23.550;2022-11-15T14:02:37;68.47;;;31.25;;
21360;SDS011;10839;43.206;23.550;2022-11-15T14:11:06;40.88;;;20.83;;
21360;SDS011;10839;43.206;23.550;2022-11-15T14:20:02;41.35;;;21.70;;
21360;SDS011;10839;43.206;23.550;2022-11-15T14:22:54;40.38;;;21.30;;
21360;SDS011;10839;43.206;23.550;2022-11-15T14:25:25;41.30;;;20.33;;
21360;SDS011;10839;43.206;23.550;2022-11-15T14:30:38;38.95;;;19.25;;
21360;SDS011;10839;43.206;23.550;2022-11-15T14:38:41;38.58;;;18.92;;
21360;SDS011;10839;43.206;23.550;2022-11-15T14:41:20;39.90;;;20.33;;
21360;SDS011;10839;43.206;23.550;2022-11-15T14:43:49;40.55;;;20.92;;
21360;SDS011;10839;43.206;23.550;2022-11-15T14:46:16;38.85;;;19.02;;
21360;SDS011;10839;43.206;23.550;2022-11-15T14:51:38;36.63;;;19.60;;
21360;SDS011;10839;43.206;23.550;2022-11-15T14:54:04;36.78;;;19.05;;
21360;SDS011;10839;43.206;23.550;2022-11-15T14:56:31;40.80;;;19.92;;
21360;SDS011;10839;43.206;23.550;2022-11-15T14:58:57;42.00;;;20.98;;
21360;SDS011;10839;43.206;23.550;2022-11-15T15:01:25;40.97;;;21.33;;
21360;SDS011;10839;43.206;23.550;2022-11-15T15:03:52;45.30;;;22.08;;
21360;SDS011;10839;43.206;23.550;2022-11-15T15:06:24;56.35;;;27.60;;
21360;SDS011;10839;43.206;23.550;2022-11-15T15:08:51;65.32;;;31.73;;
21360;SDS011;10839;43.206;23.550;2022-11-15T15:11:22;59.88;;;28.88;;
21360;SDS011;10839;43.206;23.550;2022-11-15T15:13:51;57.45;;;26.88;;
21360;SDS011;10839;43.206;23.550;2022-11-15T15:16:19;51.80;;;23.05;;
21360;SDS011;10839;43.206;23.550;2022-11-15T15:18:45;58.33;;;26.13;;
21360;SDS011;10839;43.206;23.550;2022-11-15T15:23:49;46.17;;;21.15;;
21360;SDS011;10839;43.206;23.550;2022-11-15T15:26:15;42.25;;;20.77;;
21360;SDS011;10839;43.206;23.550;2022-11-15T15:28:42;41.60;;;20.23;;
21360;SDS011;10839;43.206;23.550;2022-11-15T15:31:09;38.92;;;18.85;;
21360;SDS011;10839;43.206;23.550;2022-11-15T15:33:36;46.22;;;21.25;;
21360;SDS011;10839;43.206;23.550;2022-11-15T15:36:03;43.28;;;21.88;;
21360;SDS011;10839;43.206;23.550;2022-11-15T15:38:31;42.72;;;21.38;;
21360;SDS011;10839;43.206;23.550;2022-11-15T15:40:57;37.15;;;18.77;;
21360;SDS011;10839;43.206;23.550;2022-11-15T15:43:28;34.72;;;16.15;;
21360;SDS011;10839;43.206;23.550;2022-11-15T15:45:54;29.08;;;15.95;;
21360;SDS011;10839;43.206;23.550;2022-11-15T15:48:20;32.80;;;15.35;;
21360;SDS011;10839;43.206;23.550;2022-11-15T15:50:46;36.38;;;16.02;;
21360;SDS011;10839;43.206;23.550;2022-11-15T15:53:14;32.90;;;17.55;;
21360;SDS011;10839;43.206;23.550;2022-11-15T16:02:25;31.02;;;14.73;;
21360;SDS011;10839;43.206;23.550;2022-11-15T16:04:51;30.15;;;15.20;;
21360;SDS011;10839;43.206;23.550;2022-11-15T16:07:20;32.55;;;14.90;;
21360;SDS011;10839;43.206;23.550;2022-11-15T16:09:50;37.30;;;17.50;;
21360;SDS011;10839;43.206;23.550;2022-11-15T16:12:34;38.45;;;16.63;;
21360;SDS011;10839;43.206;23.550;2022-11-15T16:15:00;34.28;;;15.50;;
21360;SDS011;10839;43.206;23.550;2022-11-15T16:17:32;39.33;;;17.33;;
21360;SDS011;10839;43.206;23.550;2022-11-15T16:21:10;40.42;;;18.40;;
21360;SDS011;10839;43.206;23.550;2022-11-15T16:23:36;40.30;;;18.85;;
21360;SDS011;10839;43.206;23.550;2022-11-15T16:26:02;40.53;;;19.75;;
21360;SDS011;10839;43.206;23.550;2022-11-15T16:33:01;47.60;;;21.20;;
21360;SDS011;10839;43.206;23.550;2022-11-15T16:42:07;47.03;;;21.52;;
21360;SDS011;10839;43.206;23.550;2022-11-15T16:44:33;49.85;;;23.48;;
21360;SDS011;10839;43.206;23.550;2022-11-15T16:47:00;53.33;;;25.30;;
21360;SDS011;10839;43.206;23.550;2022-11-15T16:49:27;51.67;;;24.45;;
21360;SDS011;10839;43.206;23.550;2022-11-15T16:51:53;48.58;;;23.20;;
21360;SDS011;10839;43.206;23.550;2022-11-15T16:54:19;47.55;;;23.88;;
21360;SDS011;10839;43.206;23.550;2022-11-15T16:56:45;48.25;;;22.88;;
21360;SDS011;10839;43.206;23.550;2022-11-15T16:59:34;55.88;;;24.83;;
21360;SDS011;10839;43.206;23.550;2022-11-15T17:02:00;53.70;;;24.40;;
21360;SDS011;10839;43.206;23.550;2022-11-15T17:07:18;48.83;;;24.90;;
21360;SDS011;10839;43.206;23.550;2022-11-15T17:09:44;49.63;;;24.58;;
21360;SDS011;10839;43.206;23.550;2022-11-15T17:12:10;52.47;;;25.85;;
21360;SDS011;10839;43.206;23.550;2022-11-15T17:29:16;55.65;;;26.27;;
21360;SDS011;10839;43.206;23.550;2022-11-15T17:31:43;55.65;;;25.38;;
21360;SDS011;10839;43.206;23.550;2022-11-15T17:34:10;54.42;;;25.75;;
21360;SDS011;10839;43.206;23.550;2022-11-15T18:33:11;45.92;;;21.75;;
21360;SDS011;10839;43.206;23.550;2022-11-15T18:35:37;41.05;;;20.88;;
21360;SDS011;10839;43.206;23.550;2022-11-15T18:43:17;49.00;;;22.80;;
21360;SDS011;10839;43.206;23.550;2022-11-15T18:45:43;50.92;;;24.05;;
21360;SDS011;10839;43.206;23.550;2022-11-15T18:48:09;44.08;;;21.48;;
21360;SDS011;10839;43.206;23.550;2022-11-15T18:50:36;51.72;;;24.25;;
21360;SDS011;10839;43.206;23.550;2022-11-15T18:53:02;41.90;;;20.35;;
21360;SDS011;10839;43.206;23.550;2022-11-15T18:55:29;40.22;;;19.60;;
21360;SDS011;10839;43.206;23.550;2022-11-15T19:00:37;49.95;;;23.60;;
21360;SDS011;10839;43.206;23.550;2022-11-15T19:05:38;53.38;;;22.67;;
21360;SDS011;10839;43.206;23.550;2022-11-15T19:08:04;48.15;;;22.55;;
21360;SDS011;10839;43.206;23.550;2022-11-15T19:10:30;48.75;;;23.40;;
21360;SDS011;10839;43.206;23.550;2022-11-15T19:12:56;51.90;;;23.88;;
21360;SDS011;10839;43.206;23.550;2022-11-15T19:15:22;51.28;;;23.85;;
21360;SDS011;10839;43.206;23.550;2022-11-15T19:17:50;48.40;;;23.40;;
21360;SDS011;10839;43.206;23.550;2022-11-15T19:20:16;45.70;;;21.48;;
21360;SDS011;10839;43.206;23.550;2022-11-15T19:22:44;44.65;;;22.02;;
21360;SDS011;10839;43.206;23.550;2022-11-15T19:25:11;48.85;;;23.45;;
21360;SDS011;10839;43.206;23.550;2022-11-15T19:27:37;41.35;;;21.10;;
21360;SDS011;10839;43.206;23.550;2022-11-15T19:30:04;42.70;;;21.25;;
21360;SDS011;10839;43.206;23.550;2022-11-15T19:32:30;48.53;;;22.17;;
21360;SDS011;10839;43.206;23.550;2022-11-15T19:34:57;44.53;;;22.70;;
21360;SDS011;10839;43.206;23.550;2022-11-15T19:37:23;40.67;;;21.75;;
21360;SDS011;10839;43.206;23.550;2022-11-15T19:39:50;43.38;;;22.40;;
21360;SDS011;10839;43.206;23.550;2022-11-15T19:42:16;49.50;;;23.52;;
21360;SDS011;10839;43.206;23.550;2022-11-15T19:44:43;48.08;;;22.38;;
21360;SDS011;10839;43.206;23.550;2022-11-15T19:47:09;44.45;;;23.33;;
21360;SDS011;10839;43.206;23.550;2022-11-15T19:49:35;49.05;;;24.17;;
21360;SDS011;10839;43.206;23.550;2022-11-15T19:52:02;47.55;;;23.98;;
21360;SDS011;10839;43.206;23.550;2022-11-15T19:54:29;50.22;;;22.60;;
21360;SDS011;10839;43.206;23.550;2022-11-15T19:56:55;49.05;;;23.85;;
21360;SDS011;10839;43.206;23.550;2022-11-15T19:59:21;53.88;;;24.33;;
21360;SDS011;10839;43.206;23.550;2022-11-15T20:01:48;53.53;;;25.23;;
21360;SDS011;10839;43.206;23.550;2022-11-15T20:04:15;56.38;;;24.15;;
21360;SDS011;10839;43.206;23.550;2022-11-15T20:06:41;58.38;;;26.23;;
21360;SDS011;10839;43.206;23.550;2022-11-15T20:09:11;56.50;;;25.35;;
21360;SDS011;10839;43.206;23.550;2022-11-15T20:11:39;52.00;;;25.53;;
21360;SDS011;10839;43.206;23.550;2022-11-15T20:14:05;52.28;;;23.67;;
21360;SDS011;10839;43.206;23.550;2022-11-15T20:16:33;49.00;;;24.15;;
21360;SDS011;10839;43.206;23.550;2022-11-15T20:19:00;49.60;;;23.95;;
21360;SDS011;10839;43.206;23.550;2022-11-15T20:21:26;52.03;;;23.65;;
21360;SDS011;10839;43.206;23.550;2022-11-15T20:24:05;47.83;;;23.08;;
21360;SDS011;10839;43.206;23.550;2022-11-15T20:26:31;49.92;;;23.73;;
21360;SDS011;10839;43.206;23.550;2022-11-15T20:28:58;54.17;;;26.15;;
21360;SDS011;10839;43.206;23.550;2022-11-15T20:31:27;51.22;;;22.98;;
21360;SDS011;10839;43.206;23.550;2022-11-15T20:33:54;48.50;;;23.85;;
21360;SDS011;10839;43.206;23.550;2022-11-15T20:36:21;52.97;;;23.52;;
21360;SDS011;10839;43.206;23.550;2022-11-15T20:38:47;55.70;;;24.45;;
21360;SDS011;10839;43.206;23.550;2022-11-15T20:41:14;50.80;;;23.42;;
21360;SDS011;10839;43.206;23.550;2022-11-15T20:43:40;49.95;;;23.27;;
21360;SDS011;10839;43.206;23.550;2022-11-15T20:46:08;52.72;;;24.65;;
21360;SDS011;10839;43.206;23.550;2022-11-15T20:48:35;57.97;;;25.65;;
21360;SDS011;10839;43.206;23.550;2022-11-15T20:51:03;52.92;;;24.38;;
21360;SDS011;10839;43.206;23.550;2022-11-15T20:56:14;52.60;;;23.90;;
21360;SDS011;10839;43.206;23.550;2022-11-15T20:58:42;54.38;;;24.73;;
21360;SDS011;10839;43.206;23.550;2022-11-15T21:01:10;56.10;;;24.48;;
21360;SDS011;10839;43.206;23.550;2022-11-15T21:03:39;52.17;;;23.38;;
21360;SDS011;10839;43.206;23.550;2022-11-15T21:06:05;52.20;;;24.55;;
21360;SDS011;10839;43.206;23.550;2022-11-15T21:08:32;52.72;;;23.17;;
21360;SDS011;10839;43.206;23.550;2022-11-15T21:11:17;54.35;;;23.95;;
21360;SDS011;10839;43.206;23.550;2022-11-15T21:14:03;56.78;;;24.77;;
21360;SDS011;10839;43.206;23.550;2022-11-15T21:16:29;63.05;;;26.92;;
21360;SDS011;10839;43.206;23.550;2022-11-15T21:18:56;62.38;;;27.35;;
21360;SDS011;10839;43.206;23.550;2022-11-15T21:21:22;70.57;;;29.08;;
21360;SDS011;10839;43.206;23.550;2022-11-15T21:23:48;64.80;;;27.88;;
21360;SDS011;10839;43.206;23.550;2022-11-15T21:26:14;63.55;;;26.90;;
21360;SDS011;10839;43.206;23.550;2022-11-15T21:28:41;69.93;;;26.90;;
21360;SDS011;10839;43.206;23.550;2022-11-15T21:31:07;69.28;;;28.73;;
21360;SDS011;10839;43.206;23.550;2022-11-15T21:33:34;65.20;;;29.08;;
21360;SDS011;10839;43.206;23.550;2022-11-15T21:36:00;71.63;;;29.10;;
21360;SDS011;10839;43.206;23.550;2022-11-15T21:38:26;68.25;;;29.73;;
21360;SDS011;10839;43.206;23.550;2022-11-15T21:40:53;81.75;;;32.45;;
21360;SDS011;10839;43.206;23.550;2022-11-15T21:43:19;77.75;;;31.50;;
21360;SDS011;10839;43.206;23.550;2022-11-15T21:45:59;80.25;;;31.45;;
21360;SDS011;10839;43.206;23.550;2022-11-15T21:48:27;75.93;;;31.58;;
21360;SDS011;10839;43.206;23.550;2022-11-15T21:50:58;80.93;;;32.90;;
21360;SDS011;10839;43.206;23.550;2022-11-15T21:53:27;66.55;;;29.83;;
21360;SDS011;10839;43.206;23.550;2022-11-15T21:55:56;72.35;;;30.52;;
21360;SDS011;10839;43.206;23.550;2022-11-15T21:58:22;68.85;;;28.83;;
21360;SDS011;10839;43.206;23.550;2022-11-15T22:00:49;64.90;;;29.27;;
21360;SDS011;10839;43.206;23.550;2022-11-15T22:03:34;65.18;;;28.20;;
21360;SDS011;10839;43.206;23.550;2022-11-15T22:06:00;60.22;;;27.42;;
21360;SDS011;10839;43.206;23.550;2022-11-15T22:08:26;68.82;;;29.30;;
21360;SDS011;10839;43.206;23.550;2022-11-15T22:10:52;64.00;;;26.67;;
21360;SDS011;10839;43.206;23.550;2022-11-15T22:13:18;63.13;;;26.23;;
21360;SDS011;10839;43.206;23.550;2022-11-15T22:15:45;61.78;;;26.17;;
21360;SDS011;10839;43.206;23.550;2022-11-15T22:18:13;58.75;;;24.55;;
21360;SDS011;10839;43.206;23.550;2022-11-15T22:20:39;60.67;;;26.90;;
21360;SDS011;10839;43.206;23.550;2022-11-15T22:23:06;62.15;;;25.40;;
21360;SDS011;10839;43.206;23.550;2022-11-15T22:25:31;75.13;;;29.25;;
21360;SDS011;10839;43.206;23.550;2022-11-15T22:27:57;66.15;;;28.88;;
21360;SDS011;10839;43.206;23.550;2022-11-15T22:30:23;71.45;;;28.98;;
21360;SDS011;10839;43.206;23.550;2022-11-15T22:32:50;69.13;;;30.08;;
21360;SDS011;10839;43.206;23.550;2022-11-15T22:35:16;62.95;;;25.70;;
21360;SDS011;10839;43.206;23.550;2022-11-15T22:37:42;64.50;;;26.98;;
21360;SDS011;10839;43.206;23.550;2022-11-15T22:40:08;66.53;;;27.25;;
21360;SDS011;10839;43.206;23.550;2022-11-15T22:42:34;69.10;;;27.08;;
21360;SDS011;10839;43.206;23.550;2022-11-15T22:45:01;67.30;;;26.55;;
21360;SDS011;10839;43.206;23.550;2022-11-15T22:47:27;67.30;;;28.08;;
21360;SDS011;10839;43.206;23.550;2022-11-15T22:49:53;62.25;;;26.40;;